Time;durP1;ratioP1;P1;durP2;ratioP2;P2;SDS_P1;SDS_P2;PMS_P1;PMS_P2;Temp;Humidity;BMP_temperature;BMP_pressure;BME280_temperature;BME280_humidity;BME280_pressure;Samples;Min_cycle;Max_cycle;Signal;HPM_P1;HPM_P2
2022/08/11 00:01:24;;;;;;;7.12;2.10;;;18.00;99.90;;;;;;7310486;32;20207;-62
2022/08/11 00:05:25;;;;;;;4.78;1.95;;;17.80;99.90;;;;;;7317553;32;20126;-63
2022/08/11 00:09:33;;;;;;;7.30;2.22;;;17.50;99.90;;;;;;7314672;32;20696;-63
2022/08/11 00:13:47;;;;;;;5.37;2.50;;;17.40;99.90;;;;;;7310834;32;20105;-64
2022/08/11 00:17:55;;;;;;;6.85;2.40;;;17.20;99.90;;;;;;7310582;32;20104;-63
2022/08/11 00:21:59;;;;;;;3.62;2.20;;;17.00;99.90;;;;;;7313599;32;20828;-64
2022/08/11 00:26:07;;;;;;;2.85;1.92;;;16.90;99.90;;;;;;7320645;32;20171;-63
2022/08/11 00:30:12;;;;;;;6.18;2.37;;;16.70;99.90;;;;;;7317611;32;20139;-64
2022/08/11 00:34:16;;;;;;;6.20;2.60;;;16.70;99.90;;;;;;7316638;32;20108;-63
2022/08/11 00:38:24;;;;;;;6.00;2.25;;;16.50;99.90;;;;;;7319690;32;20262;-63
2022/08/11 00:42:53;;;;;;;6.90;2.30;;;16.40;99.90;;;;;;7310745;32;20216;-63
2022/08/11 00:47:03;;;;;;;6.72;2.40;;;16.30;99.90;;;;;;7317364;32;20104;-63
2022/08/11 00:51:12;;;;;;;4.78;2.37;;;16.20;99.90;;;;;;7314446;32;20244;-63
2022/08/11 00:55:44;;;;;;;7.00;2.05;;;16.10;99.90;;;;;;7301868;32;20207;-63
2022/08/11 01:00:15;;;;;;;5.03;2.47;;;16.00;99.90;;;;;;7314166;32;20111;-63
2022/08/11 01:04:55;;;;;;;3.45;2.15;;;16.00;99.90;;;;;;7316585;32;20212;-63
2022/08/11 01:09:12;;;;;;;4.62;2.40;;;15.90;99.90;;;;;;7315149;32;20316;-64
2022/08/11 01:13:49;;;;;;;6.30;2.60;;;15.80;99.90;;;;;;7308512;32;20095;-59
2022/08/11 01:18:10;;;;;;;;;;;15.70;99.90;;;;;;7285866;32;20162;-61
2022/08/11 01:22:14;;;;;;;6.10;2.42;;;15.70;99.90;;;;;;7317303;32;20139;-63
2022/08/11 01:26:48;;;;;;;5.55;2.30;;;15.60;99.90;;;;;;7306960;32;22231;-63
2022/08/11 01:31:19;;;;;;;9.20;2.67;;;15.40;99.90;;;;;;7311674;32;20175;-63
2022/08/11 01:35:48;;;;;;;3.33;2.20;;;15.40;99.90;;;;;;7312448;32;20483;-62
2022/08/11 01:40:08;;;;;;;5.87;2.58;;;15.40;99.90;;;;;;7304977;32;20299;-62
2022/08/11 01:48:36;;;;;;;5.22;2.40;;;15.30;99.90;;;;;;7307982;32;20115;-63
2022/08/11 01:52:56;;;;;;;3.45;2.20;;;15.20;99.90;;;;;;7305774;32;20375;-63
2022/08/11 01:57:30;;;;;;;4.10;2.25;;;15.20;99.90;;;;;;7308574;32;21049;-63
2022/08/11 02:01:35;;;;;;;5.43;2.47;;;15.10;99.90;;;;;;7305008;32;20118;-62
2022/08/11 02:06:53;;;;;;;6.93;2.33;;;15.10;99.90;;;;;;7296938;32;20186;-63
2022/08/11 02:15:43;;;;;;;5.03;2.40;;;15.10;99.90;;;;;;7311076;32;20301;-63
2022/08/11 02:24:23;;;;;;;2.70;2.20;;;15.00;99.90;;;;;;7304732;32;20301;-63
2022/08/11 02:28:41;;;;;;;6.53;2.58;;;15.00;99.90;;;;;;7306009;32;20290;-63
2022/08/11 02:37:23;;;;;;;5.18;2.83;;;15.00;99.90;;;;;;7306856;32;20226;-63
2022/08/11 02:46:15;;;;;;;8.77;2.62;;;15.00;99.90;;;;;;7318262;32;20112;-63
2022/08/11 02:50:25;;;;;;;6.62;2.55;;;14.80;99.90;;;;;;7312026;32;20457;-63
2022/08/11 02:54:29;;;;;;;6.05;2.70;;;14.70;99.90;;;;;;7307803;32;20214;-63
2022/08/11 02:59:49;;;;;;;6.97;2.90;;;14.70;99.90;;;;;;7314047;32;20261;-63
2022/08/11 03:04:07;;;;;;;6.22;2.60;;;14.70;99.90;;;;;;7311859;32;20176;-61
2022/08/11 03:08:50;;;;;;;6.00;2.53;;;14.60;99.90;;;;;;7309607;32;20583;-62
2022/08/11 03:18:08;;;;;;;9.55;3.00;;;14.50;99.90;;;;;;7314158;32;20126;-63
2022/08/11 03:22:23;;;;;;;6.22;3.05;;;14.50;99.90;;;;;;7298208;32;20115;-63
2022/08/11 03:27:04;;;;;;;4.55;2.65;;;14.50;99.90;;;;;;7310500;32;20107;-63
2022/08/11 03:31:26;;;;;;;4.70;2.90;;;14.50;99.90;;;;;;7306272;32;20109;-63
2022/08/11 03:35:34;;;;;;;7.50;3.08;;;14.50;99.90;;;;;;7308368;32;20126;-63
2022/08/11 03:39:39;;;;;;;3.87;2.95;;;14.50;99.90;;;;;;7312289;32;20561;-64
2022/08/11 03:44:09;;;;;;;6.20;3.37;;;14.50;99.90;;;;;;7309157;32;20115;-64
2022/08/11 03:48:24;;;;;;;5.55;3.47;;;14.40;99.90;;;;;;7316716;32;20504;-64
2022/08/11 03:52:31;;;;;;;9.75;3.22;;;14.30;99.90;;;;;;7311557;32;20139;-60
2022/08/11 03:56:36;;;;;;;;;;;14.30;99.90;;;;;;7316462;32;20224;-66
2022/08/11 04:01:02;;;;;;;5.85;3.30;;;14.20;99.90;;;;;;7312087;32;20029;-64
2022/08/11 04:05:31;;;;;;;7.22;2.72;;;14.10;99.90;;;;;;7314690;32;20211;-64
2022/08/11 04:09:39;;;;;;;8.85;3.17;;;14.10;99.90;;;;;;7309160;32;20316;-64
2022/08/11 04:18:58;;;;;;;4.62;3.03;;;13.90;99.90;;;;;;7285844;32;20340;-64
2022/08/11 04:23:41;;;;;;;13.00;3.22;;;13.90;99.90;;;;;;7312550;32;20211;-64
2022/08/11 04:28:30;;;;;;;5.15;3.37;;;13.80;99.90;;;;;;7312783;32;20108;-64
2022/08/11 04:32:58;;;;;;;6.93;3.25;;;13.70;99.90;;;;;;7314486;32;20179;-63
2022/08/11 04:46:29;;;;;;;5.20;3.80;;;13.60;99.90;;;;;;7304849;32;20175;-64
2022/08/11 05:05:30;;;;;;;5.90;3.42;;;14.10;99.90;;;;;;7310803;32;20138;-66
2022/08/11 05:09:57;;;;;;;5.97;2.95;;;14.50;99.90;;;;;;7310184;32;21861;-63
2022/08/11 05:36:56;;;;;;;9.25;4.18;;;14.60;99.90;;;;;;7310815;32;20108;-66
2022/08/11 05:59:16;;;;;;;5.43;4.55;;;15.00;99.90;;;;;;7298733;32;20130;-64
2022/08/11 06:03:27;;;;;;;5.90;3.75;;;15.10;99.90;;;;;;7302875;32;20359;-65
2022/08/11 06:07:30;;;;;;;9.02;4.45;;;15.20;99.90;;;;;;7310130;32;20293;-65
2022/08/11 06:11:51;;;;;;;10.98;4.25;;;15.40;99.90;;;;;;7308867;32;20225;-65
2022/08/11 06:15:54;;;;;;;6.30;3.83;;;15.50;99.90;;;;;;7309612;32;20799;-66
2022/08/11 06:20:10;;;;;;;6.35;4.10;;;15.60;99.90;;;;;;7307161;32;20724;-65
2022/08/11 06:24:15;;;;;;;5.55;3.60;;;15.80;99.90;;;;;;7307393;32;20115;-65
2022/08/11 06:28:19;;;;;;;6.75;3.28;;;15.90;99.90;;;;;;7308415;32;20226;-65
2022/08/11 06:32:34;;;;;;;3.33;2.60;;;16.10;99.90;;;;;;7310226;32;20152;-63
2022/08/11 06:36:54;;;;;;;5.03;2.80;;;16.30;99.90;;;;;;7307686;32;20120;-65
2022/08/11 06:45:25;;;;;;;4.43;2.78;;;16.80;99.90;;;;;;7305457;32;20129;-66
2022/08/11 06:54:02;;;;;;;6.50;2.80;;;17.20;99.90;;;;;;7311761;32;20314;-66
2022/08/11 07:02:41;;;;;;;5.32;2.75;;;17.80;99.90;;;;;;7308724;32;20327;-65
2022/08/11 07:15:40;;;;;;;6.70;2.50;;;18.70;99.90;;;;;;7307226;32;20169;-63
2022/08/11 07:16:08;;;;;;;4.75;2.60;;;19.20;99.90;;;;;;7304851;32;20650;-65
2022/08/11 07:29:21;;;;;;;7.18;2.87;;;20.00;99.90;;;;;;7313447;32;20195;-63
2022/08/11 07:33:46;;;;;;;5.32;2.50;;;20.30;99.90;;;;;;7307820;32;20159;-63
2022/08/11 07:38:16;;;;;;;9.23;2.53;;;20.50;99.90;;;;;;7306855;32;20753;-63
2022/08/11 07:42:30;;;;;;;8.83;2.80;;;20.70;99.90;;;;;;7311370;32;20111;-64
2022/08/11 07:55:15;;;;;;;9.10;3.15;;;21.80;99.90;;;;;;7306283;32;20167;-63
2022/08/11 08:21:21;;;;;;;3.42;2.20;;;22.80;99.90;;;;;;7307176;32;22110;-64
2022/08/11 08:25:25;;;;;;;6.07;2.50;;;23.30;99.90;;;;;;7297462;32;20177;-64
2022/08/11 08:33:52;;;;;;;8.38;2.17;;;23.60;99.90;;;;;;7305562;32;20257;-65
2022/08/11 08:37:55;;;;;;;7.00;1.80;;;23.80;99.90;;;;;;7303542;32;20191;-65
2022/08/11 08:41:58;;;;;;;5.55;2.03;;;24.10;99.90;;;;;;7303324;32;20664;-65
2022/08/11 08:46:00;;;;;;;9.48;2.37;;;24.60;99.20;;;;;;7306867;32;20248;-65
2022/08/11 08:50:07;;;;;;;8.90;2.15;;;25.60;95.00;;;;;;7307982;32;20169;-66
2022/08/11 08:54:19;;;;;;;4.40;2.45;;;26.50;93.60;;;;;;7305485;32;20497;-66
2022/08/11 08:58:22;;;;;;;4.20;1.90;;;27.60;90.20;;;;;;7309826;32;20103;-66
2022/08/11 09:02:25;;;;;;;6.05;2.03;;;28.30;83.30;;;;;;7309153;32;20547;-66
2022/08/11 09:06:41;;;;;;;3.75;1.80;;;29.10;75.30;;;;;;7311267;32;20096;-66
2022/08/11 09:11:48;;;;;;;2.87;1.62;;;29.70;73.60;;;;;;7305030;32;20110;-66
2022/08/11 09:15:17;;;;;;;2.65;1.50;;;30.40;70.20;;;;;;7305862;32;20172;-64
2022/08/11 09:19:22;;;;;;;6.80;1.90;;;30.90;67.60;;;;;;7302153;32;20147;-65
2022/08/11 09:28:10;;;;;;;4.87;1.73;;;30.90;59.00;;;;;;7302733;32;20100;-65
2022/08/11 09:32:13;;;;;;;5.30;1.90;;;31.70;60.20;;;;;;7303401;32;20187;-66
2022/08/11 09:40:43;;;;;;;4.00;1.85;;;32.40;58.40;;;;;;7310158;32;20195;-65
2022/08/11 09:44:49;;;;;;;3.90;1.73;;;32.60;58.80;;;;;;7304264;32;20159;-65
2022/08/11 09:48:55;;;;;;;3.12;1.80;;;32.70;54.90;;;;;;7301880;32;20099;-65
2022/08/11 09:52:58;;;;;;;4.75;1.60;;;32.50;55.60;;;;;;7305047;32;20207;-65
2022/08/11 10:01:49;;;;;;;6.57;1.95;;;33.00;53.40;;;;;;7304058;32;20272;-68
2022/08/11 10:10:21;;;;;;;6.43;1.67;;;33.60;52.50;;;;;;7302376;32;20125;-69
2022/08/11 10:18:52;;;;;;;4.25;1.90;;;33.70;50.00;;;;;;7303555;32;20112;-68
2022/08/11 10:27:16;;;;;;;5.20;2.12;;;33.90;54.50;;;;;;7310723;32;20159;-68
2022/08/11 10:35:59;;;;;;;7.10;1.87;;;33.60;51.00;;;;;;7297018;32;20145;-68
2022/08/11 10:40:02;;;;;;;4.05;1.80;;;33.90;52.00;;;;;;7307716;32;20124;-68
2022/08/11 10:44:06;;;;;;;4.55;1.90;;;33.60;54.00;;;;;;7304903;32;20229;-68
2022/08/11 10:48:09;;;;;;;6.75;1.92;;;33.30;54.90;;;;;;7304625;32;20120;-68
2022/08/11 11:00:59;;;;;;;5.30;1.92;;;32.90;54.80;;;;;;7309724;32;20104;-68
2022/08/11 11:05:09;;;;;;;6.50;1.85;;;32.70;54.70;;;;;;7312084;32;20795;-68
2022/08/11 11:09:21;;;;;;;7.35;2.20;;;32.50;54.10;;;;;;7308656;32;20247;-68
2022/08/11 11:18:06;;;;;;;7.10;2.12;;;32.00;50.90;;;;;;7308805;32;20522;-68
2022/08/11 11:26:44;;;;;;;5.15;1.62;;;32.00;50.30;;;;;;7309916;32;20198;-68
2022/08/11 11:31:20;;;;;;;4.43;1.85;;;31.80;49.50;;;;;;7305119;32;20182;-69
2022/08/11 11:35:25;;;;;;;3.10;2.00;;;31.90;49.80;;;;;;7277979;32;20185;-68
2022/08/11 11:39:31;;;;;;;5.93;2.00;;;31.70;48.50;;;;;;7306642;32;20164;-69
2022/08/11 11:43:34;;;;;;;3.93;2.10;;;31.80;52.00;;;;;;7305444;32;20246;-68
2022/08/11 11:47:37;;;;;;;7.72;2.20;;;31.90;48.20;;;;;;7307343;32;20238;-68
2022/08/11 11:51:39;;;;;;;3.95;1.55;;;32.00;51.20;;;;;;7302028;32;20238;-68
2022/08/11 11:55:44;;;;;;;6.32;1.98;;;32.20;50.60;;;;;;7315988;32;20122;-68
2022/08/11 12:04:18;;;;;;;2.80;1.58;;;31.90;48.10;;;;;;7305967;32;20624;-68
2022/08/11 12:08:22;;;;;;;4.85;1.98;;;31.90;49.00;;;;;;7304722;32;20569;-69
2022/08/11 12:16:50;;;;;;;3.75;1.77;;;32.40;48.00;;;;;;7305028;32;20261;-68
2022/08/11 12:20:52;;;;;;;7.32;1.80;;;32.50;47.30;;;;;;7301366;32;20215;-68
2022/08/11 12:29:25;;;;;;;5.30;1.87;;;32.30;48.70;;;;;;7316260;32;20141;-67
2022/08/11 12:33:27;;;;;;;3.08;1.95;;;32.30;49.30;;;;;;7315091;32;20753;-68
2022/08/11 12:37:33;;;;;;;3.50;1.60;;;32.30;48.60;;;;;;7313534;32;20099;-66
2022/08/11 12:46:03;;;;;;;8.02;1.80;;;32.10;44.90;;;;;;7314880;32;20633;-69
2022/08/11 12:54:48;;;;;;;5.40;2.22;;;32.10;46.70;;;;;;7311459;32;20245;-69
2022/08/11 12:58:52;;;;;;;5.28;1.73;;;31.90;47.30;;;;;;7310252;32;20583;-69
2022/08/11 13:07:16;;;;;;;3.25;2.00;;;32.00;48.10;;;;;;7305506;32;20219;-68
2022/08/11 13:15:59;;;;;;;5.40;1.90;;;32.10;47.90;;;;;;7309507;32;20099;-68
2022/08/11 13:20:01;;;;;;;5.47;2.17;;;32.00;48.10;;;;;;7312851;32;20489;-68
2022/08/11 13:24:05;;;;;;;4.65;1.90;;;31.90;46.90;;;;;;7303652;32;20211;-69
2022/08/11 13:28:07;;;;;;;4.12;2.00;;;32.20;47.00;;;;;;7309886;32;20214;-68
2022/08/11 13:32:10;;;;;;;3.62;1.87;;;32.40;46.50;;;;;;7305073;32;20215;-69
2022/08/11 13:36:14;;;;;;;5.32;1.75;;;32.30;46.20;;;;;;7305850;32;20294;-68
2022/08/11 13:40:19;;;;;;;7.45;2.00;;;32.30;47.90;;;;;;7303279;32;20104;-68
2022/08/11 13:44:43;;;;;;;5.87;2.40;;;32.40;47.80;;;;;;7299757;32;20258;-69
2022/08/11 13:48:45;;;;;;;7.97;2.25;;;32.70;45.70;;;;;;7303984;32;20125;-68
2022/08/11 13:52:48;;;;;;;4.32;1.90;;;32.00;45.20;;;;;;7307137;32;20181;-68
2022/08/11 13:56:58;;;;;;;5.60;2.80;;;32.20;46.40;;;;;;7304470;32;20235;-68
2022/08/11 14:01:00;;;;;;;2.33;1.92;;;32.10;46.60;;;;;;7305347;32;20575;-68
2022/08/11 14:05:32;;;;;;;5.95;2.10;;;31.80;46.30;;;;;;7303694;32;20192;-69
2022/08/11 14:09:38;;;;;;;6.90;2.20;;;31.80;47.80;;;;;;7308665;32;20662;-69
2022/08/11 14:13:42;;;;;;;4.57;2.13;;;32.00;48.30;;;;;;7307753;32;20295;-69
2022/08/11 14:18:00;;;;;;;3.00;2.40;;;32.10;48.10;;;;;;7302986;32;21057;-69
2022/08/11 14:22:06;;;;;;;9.73;2.10;;;32.10;47.60;;;;;;7306298;32;20281;-69
2022/08/11 14:26:22;;;;;;;10.75;2.10;;;31.80;47.20;;;;;;7302967;32;20092;-69
2022/08/11 14:34:48;;;;;;;6.93;2.60;;;31.70;46.80;;;;;;7303697;32;20097;-68
2022/08/11 14:38:50;;;;;;;6.72;2.03;;;31.60;46.70;;;;;;7308163;32;20162;-68
2022/08/11 14:47:14;;;;;;;4.32;2.05;;;31.30;48.90;;;;;;7311636;32;20127;-68
2022/08/11 14:51:26;;;;;;;5.30;2.03;;;31.20;48.20;;;;;;7310480;32;20135;-69
2022/08/11 14:59:52;;;;;;;5.43;1.80;;;31.30;48.80;;;;;;7305353;32;20289;-69
2022/08/11 15:03:56;;;;;;;5.68;2.33;;;31.30;48.70;;;;;;7310989;32;20652;-69
2022/08/11 15:08:19;;;;;;;6.68;2.40;;;30.90;48.50;;;;;;7317765;32;20593;-69
2022/08/11 15:12:21;;;;;;;2.92;2.10;;;30.80;48.10;;;;;;7311665;32;20774;-69
2022/08/11 15:25:18;;;;;;;3.30;2.08;;;30.80;49.80;;;;;;7309499;32;20727;-68
2022/08/11 15:38:12;;;;;;;4.85;2.35;;;30.40;48.70;;;;;;7315509;32;20127;-69
2022/08/11 15:46:46;;;;;;;4.43;2.00;;;30.20;48.60;;;;;;7311496;32;20131;-68
2022/08/11 15:50:55;;;;;;;5.18;2.00;;;30.10;49.00;;;;;;7306709;32;20186;-68
2022/08/11 15:55:01;;;;;;;5.75;3.90;;;30.10;49.40;;;;;;7313970;32;20122;-69
2022/08/11 16:04:11;;;;;;;5.60;2.55;;;29.80;49.70;;;;;;7309468;32;20112;-67
2022/08/11 16:08:18;;;;;;;7.15;2.42;;;29.70;49.80;;;;;;7316454;32;20112;-68
2022/08/11 16:17:11;;;;;;;2.87;2.03;;;29.60;49.90;;;;;;7314373;32;20224;-69
2022/08/11 16:21:23;;;;;;;3.80;2.28;;;29.50;48.90;;;;;;7315072;32;20273;-69
2022/08/11 16:25:36;;;;;;;5.82;2.30;;;29.40;49.10;;;;;;7311905;32;20820;-70
2022/08/11 16:30:00;;;;;;;9.95;2.65;;;29.40;49.30;;;;;;7306978;32;20103;-68
2022/08/11 16:34:03;;;;;;;6.85;2.33;;;29.20;48.90;;;;;;7313419;32;20154;-68
2022/08/11 16:47:15;;;;;;;6.28;2.00;;;29.30;50.00;;;;;;7316109;32;20229;-69
2022/08/11 16:51:19;;;;;;;5.65;2.30;;;29.10;49.80;;;;;;7302451;32;20120;-69
2022/08/11 16:55:22;;;;;;;3.47;2.40;;;29.10;49.20;;;;;;7314536;32;20158;-69
2022/08/11 16:59:44;;;;;;;5.43;2.12;;;28.90;49.70;;;;;;7305898;32;20095;-67
2022/08/11 17:17:00;;;;;;;8.80;2.08;;;28.70;49.90;;;;;;7305327;32;20588;-69
2022/08/11 17:21:03;;;;;;;6.62;2.25;;;28.70;50.50;;;;;;7309532;32;20134;-68
2022/08/11 17:25:08;;;;;;;3.75;2.15;;;28.60;50.60;;;;;;7309367;32;20706;-68
2022/08/11 17:29:11;;;;;;;8.48;2.12;;;28.60;49.70;;;;;;7293614;32;20131;-68
2022/08/11 17:37:36;;;;;;;10.68;2.53;;;28.50;50.70;;;;;;7304197;32;20226;-67
2022/08/11 17:50:08;;;;;;;3.87;2.10;;;28.20;51.50;;;;;;7315448;32;20218;-65
